ADDS METAR Data INFO
IDs: Format: Raw Decoded Include TAF

Data at: 0259 UTC 21 Oct 2017

KLPR 210253Z AUTO 18006KT 10SM CLR 12/03 A3020 RMK AO2 SLP227 T01170033 58001
KLPR 210153Z AUTO 21004KT 10SM CLR 12/03 A3021 RMK AO2 SLP230 T01220033
KLPR 210053Z AUTO 18007KT 10SM CLR 16/03 A3020 RMK AO2 SLP227 T01560028
KLPR 202353Z AUTO 18007KT 10SM CLR 16/03 A3020 RMK AO2 SLP229 T01560033 10233 20139 55003
KLPR 202253Z AUTO 18005KT 10SM CLR 16/04 A3019 RMK AO2 SLP226 T01610039
KLPR 202153Z AUTO 19006KT 10SM CLR 21/03 A3020 RMK AO2 SLP226 T02060033
KLPR 202053Z AUTO 17005KT 10SM CLR 23/02 A3021 RMK AO2 SLP231 T02280022 56016
KLPR 201953Z AUTO 20004KT 10SM CLR 23/02 A3022 RMK AO2 SLP234 T02280022
KLPR 201853Z AUTO 20005KT 10SM CLR 23/02 A3024 RMK AO2 SLP240 T02280022
KLPR 201753Z AUTO 17005KT 10SM CLR 21/03 A3026 RMK AO2 SLP246 T02110028 10211 20050 58018
KLPR 201653Z AUTO 17007KT 10SM CLR 20/06 A3028 RMK AO2 SLP255 T02000056
KLPR 201553Z AUTO 19006KT 10SM CLR 18/07 A3030 RMK AO2 SLP261 T01780067
KLPR 201453Z AUTO 16005KT 10SM CLR 15/07 A3032 RMK AO2 SLP266 T01500067 51009
KLPR 201353Z AUTO 00000KT 10SM CLR 11/06 A3031 RMK AO2 SLP267 T01110061
KLPR 201253Z AUTO 17003KT 10SM CLR 08/04 A3031 RMK AO2 SLP264 T00780044 $
KLPR 201153Z AUTO 00000KT 8SM CLR 05/02 A3029 RMK AO2 SLP259 T00500022 10089 20050 51016 $
KLPR 201053Z AUTO 25004KT 10SM CLR 06/03 A3027 RMK AO2 SLP252 T00610028 $
KLPR 200953Z AUTO 00000KT 10SM CLR 07/03 A3026 RMK AO2 SLP247 T00670033 $
KLPR 200853Z AUTO 25004KT 10SM CLR 06/03 A3024 RMK AO2 SLP241 T00610028 53008 $
KLPR 200753Z AUTO 00000KT 10SM CLR 07/03 A3023 RMK AO2 SLP234 T00670033 $
KLPR 200653Z AUTO 24003KT 10SM CLR 08/04 A3022 RMK AO2 SLP233 T00830044 $
KLPR 200553Z AUTO 23003KT 10SM CLR 08/05 A3022 RMK AO2 SLP231 T00830050 10172 20078 53012 $
KLPR 200453Z AUTO 00000KT 10SM CLR 08/05 A3020 RMK AO2 SLP227 T00830050 402280083 $
KLPR 200353Z AUTO 25003KT 10SM CLR 10/06 A3019 RMK AO2 SLP223 T01000061 $
KLPR 200253Z AUTO 26004KT 10SM CLR 12/07 A3018 RMK AO2 SLP220 T01170067 53007 $
KLPR 200153Z AUTO 27003KT 10SM CLR 14/07 A3017 RMK AO2 SLP217 T01390072
KLPR 200053Z AUTO 29004KT 10SM CLR 16/08 A3016 RMK AO2 SLP214 T01560078
KLPR 192353Z AUTO 29003KT 10SM CLR 17/08 A3016 RMK AO2 SLP212 T01720078 10228 20172 53013
KLPR 192253Z AUTO 28005KT 10SM CLR 19/07 A3014 RMK AO2 SLP206 T01890072
KLPR 192153Z AUTO 26010KT 10SM CLR 21/08 A3012 RMK AO2 SLP198 T02110078
KLPR 192053Z AUTO 27012KT 10SM CLR 22/07 A3012 RMK AO2 SLP198 T02220072 56009
KLPR 191953Z AUTO 27011KT 10SM CLR 23/08 A3012 RMK AO2 SLP199 T02280078
KLPR 191853Z AUTO 24010KT 10SM CLR 22/07 A3013 RMK AO2 SLP201 T02220072
KLPR 191753Z AUTO 25009KT 10SM CLR 21/07 A3015 RMK AO2 SLP207 T02110072 10211 20094 58004
KLPR 191653Z AUTO 26007G16KT 10SM CLR 21/07 A3016 RMK AO2 SLP211 T02060072
KLPR 191553Z AUTO 26007KT 10SM CLR 19/07 A3016 RMK AO2 SLP211 T01890067